sensor_id;sensor_type;location;lat;lon;timestamp;temperature;humidity
12421;DHT22;6275;43.688;1.408;2023-11-19T00:02:16;10.50;99.90
12421;DHT22;6275;43.688;1.408;2023-11-19T00:04:44;10.50;99.90
12421;DHT22;6275;43.688;1.408;2023-11-19T00:07:10;10.50;99.90
12421;DHT22;6275;43.688;1.408;2023-11-19T00:09:40;10.40;99.90
12421;DHT22;6275;43.688;1.408;2023-11-19T00:12:07;10.50;99.90
12421;DHT22;6275;43.688;1.408;2023-11-19T00:14:34;10.50;99.90
12421;DHT22;6275;43.688;1.408;2023-11-19T00:17:01;10.50;99.90
12421;DHT22;6275;43.688;1.408;2023-11-19T00:19:30;10.50;99.90
12421;DHT22;6275;43.688;1.408;2023-11-19T00:21:57;10.40;99.90
12421;DHT22;6275;43.688;1.408;2023-11-19T00:24:29;10.40;99.90
12421;DHT22;6275;43.688;1.408;2023-11-19T00:26:57;10.40;99.90
12421;DHT22;6275;43.688;1.408;2023-11-19T00:29:24;10.40;99.90
12421;DHT22;6275;43.688;1.408;2023-11-19T00:31:51;10.40;99.90
12421;DHT22;6275;43.688;1.408;2023-11-19T00:34:19;10.40;99.90
12421;DHT22;6275;43.688;1.408;2023-11-19T00:36:48;10.40;99.90
12421;DHT22;6275;43.688;1.408;2023-11-19T00:39:16;10.40;99.90
12421;DHT22;6275;43.688;1.408;2023-11-19T00:41:42;10.50;99.90
12421;DHT22;6275;43.688;1.408;2023-11-19T00:44:09;10.50;99.90
12421;DHT22;6275;43.688;1.408;2023-11-19T00:46:36;10.50;99.90
12421;DHT22;6275;43.688;1.408;2023-11-19T00:49:03;10.40;99.90
12421;DHT22;6275;43.688;1.408;2023-11-19T00:51:30;10.40;99.90
12421;DHT22;6275;43.688;1.408;2023-11-19T00:53:58;10.40;99.90
12421;DHT22;6275;43.688;1.408;2023-11-19T00:56:26;10.40;99.90
12421;DHT22;6275;43.688;1.408;2023-11-19T00:58:52;10.40;99.90
12421;DHT22;6275;43.688;1.408;2023-11-19T01:01:19;10.40;99.90
12421;DHT22;6275;43.688;1.408;2023-11-19T01:03:47;10.40;99.90
12421;DHT22;6275;43.688;1.408;2023-11-19T01:06:14;10.40;99.90
12421;DHT22;6275;43.688;1.408;2023-11-19T01:08:43;10.50;99.90
12421;DHT22;6275;43.688;1.408;2023-11-19T01:11:20;10.50;99.90
12421;DHT22;6275;43.688;1.408;2023-11-19T01:13:48;10.50;99.90
12421;DHT22;6275;43.688;1.408;2023-11-19T01:16:15;10.40;99.90
12421;DHT22;6275;43.688;1.408;2023-11-19T01:18:42;10.40;99.90
12421;DHT22;6275;43.688;1.408;2023-11-19T01:21:09;10.50;99.90
12421;DHT22;6275;43.688;1.408;2023-11-19T01:23:35;10.50;99.90
12421;DHT22;6275;43.688;1.408;2023-11-19T01:26:04;10.40;99.90
12421;DHT22;6275;43.688;1.408;2023-11-19T01:28:32;10.40;99.90
12421;DHT22;6275;43.688;1.408;2023-11-19T01:30:59;10.40;99.90
12421;DHT22;6275;43.688;1.408;2023-11-19T01:33:26;10.50;99.90
12421;DHT22;6275;43.688;1.408;2023-11-19T01:35:52;10.50;99.90
12421;DHT22;6275;43.688;1.408;2023-11-19T01:38:19;10.40;99.90
12421;DHT22;6275;43.688;1.408;2023-11-19T01:40:46;10.30;99.90
12421;DHT22;6275;43.688;1.408;2023-11-19T01:43:34;10.30;99.90
12421;DHT22;6275;43.688;1.408;2023-11-19T01:46:02;10.40;99.90
12421;DHT22;6275;43.688;1.408;2023-11-19T01:48:31;10.40;99.90
12421;DHT22;6275;43.688;1.408;2023-11-19T01:51:00;10.40;99.90
12421;DHT22;6275;43.688;1.408;2023-11-19T01:53:29;10.40;99.90
12421;DHT22;6275;43.688;1.408;2023-11-19T01:55:57;10.40;99.90
12421;DHT22;6275;43.688;1.408;2023-11-19T01:58:24;10.30;99.90
12421;DHT22;6275;43.688;1.408;2023-11-19T02:00:51;10.30;99.90
12421;DHT22;6275;43.688;1.408;2023-11-19T02:03:19;10.30;99.90
12421;DHT22;6275;43.688;1.408;2023-11-19T02:05:48;10.30;99.90
12421;DHT22;6275;43.688;1.408;2023-11-19T02:08:16;10.30;99.90
12421;DHT22;6275;43.688;1.408;2023-11-19T02:10:43;10.40;99.90
12421;DHT22;6275;43.688;1.408;2023-11-19T02:13:10;10.40;99.90
12421;DHT22;6275;43.688;1.408;2023-11-19T02:15:37;10.40;99.90
12421;DHT22;6275;43.688;1.408;2023-11-19T02:18:20;10.40;99.90
12421;DHT22;6275;43.688;1.408;2023-11-19T02:20:50;10.50;99.90
12421;DHT22;6275;43.688;1.408;2023-11-19T02:23:18;10.50;99.90
12421;DHT22;6275;43.688;1.408;2023-11-19T02:28:30;10.50;99.90
12421;DHT22;6275;43.688;1.408;2023-11-19T02:30:57;10.60;99.90
12421;DHT22;6275;43.688;1.408;2023-11-19T02:33:24;10.70;99.90
12421;DHT22;6275;43.688;1.408;2023-11-19T02:35:51;10.70;99.90
12421;DHT22;6275;43.688;1.408;2023-11-19T02:38:18;10.70;99.90
12421;DHT22;6275;43.688;1.408;2023-11-19T02:40:45;10.60;99.90
12421;DHT22;6275;43.688;1.408;2023-11-19T02:43:12;10.40;99.90
12421;DHT22;6275;43.688;1.408;2023-11-19T02:45:40;10.40;99.90
12421;DHT22;6275;43.688;1.408;2023-11-19T02:48:07;10.20;99.90
12421;DHT22;6275;43.688;1.408;2023-11-19T02:50:34;10.10;99.90
12421;DHT22;6275;43.688;1.408;2023-11-19T02:53:00;10.00;99.90
12421;DHT22;6275;43.688;1.408;2023-11-19T02:55:28;10.00;99.90
12421;DHT22;6275;43.688;1.408;2023-11-19T02:57:57;10.00;99.90
12421;DHT22;6275;43.688;1.408;2023-11-19T03:00:26;10.00;99.90
12421;DHT22;6275;43.688;1.408;2023-11-19T03:03:03;10.00;99.90
12421;DHT22;6275;43.688;1.408;2023-11-19T03:05:47;10.00;99.90
12421;DHT22;6275;43.688;1.408;2023-11-19T03:08:15;10.10;99.90
12421;DHT22;6275;43.688;1.408;2023-11-19T03:10:45;10.20;99.90
12421;DHT22;6275;43.688;1.408;2023-11-19T03:13:13;10.20;99.90
12421;DHT22;6275;43.688;1.408;2023-11-19T03:15:46;10.40;99.90
12421;DHT22;6275;43.688;1.408;2023-11-19T03:18:13;10.30;99.90
12421;DHT22;6275;43.688;1.408;2023-11-19T03:20:40;10.30;99.90
12421;DHT22;6275;43.688;1.408;2023-11-19T03:23:07;10.30;99.90
12421;DHT22;6275;43.688;1.408;2023-11-19T03:25:34;10.40;99.90
12421;DHT22;6275;43.688;1.408;2023-11-19T03:28:01;10.40;99.90
12421;DHT22;6275;43.688;1.408;2023-11-19T03:30:31;10.40;99.90
12421;DHT22;6275;43.688;1.408;2023-11-19T03:33:00;10.50;99.90
12421;DHT22;6275;43.688;1.408;2023-11-19T03:35:28;10.50;99.90
12421;DHT22;6275;43.688;1.408;2023-11-19T03:37:55;10.50;99.90
12421;DHT22;6275;43.688;1.408;2023-11-19T03:40:22;10.50;99.90
12421;DHT22;6275;43.688;1.408;2023-11-19T03:42:51;10.50;99.90
12421;DHT22;6275;43.688;1.408;2023-11-19T03:45:17;10.50;99.90
12421;DHT22;6275;43.688;1.408;2023-11-19T03:47:44;10.50;99.90
12421;DHT22;6275;43.688;1.408;2023-11-19T03:50:11;10.60;99.90
12421;DHT22;6275;43.688;1.408;2023-11-19T03:52:38;10.50;99.90
12421;DHT22;6275;43.688;1.408;2023-11-19T03:55:08;10.60;99.90
12421;DHT22;6275;43.688;1.408;2023-11-19T03:57:35;10.60;99.90
12421;DHT22;6275;43.688;1.408;2023-11-19T04:00:03;10.60;99.90
12421;DHT22;6275;43.688;1.408;2023-11-19T04:02:37;10.60;99.90
12421;DHT22;6275;43.688;1.408;2023-11-19T04:05:04;10.50;99.90
12421;DHT22;6275;43.688;1.408;2023-11-19T04:07:32;10.40;99.90
12421;DHT22;6275;43.688;1.408;2023-11-19T04:09:59;10.40;99.90
12421;DHT22;6275;43.688;1.408;2023-11-19T04:12:26;10.40;99.90
12421;DHT22;6275;43.688;1.408;2023-11-19T04:14:53;10.40;99.90
12421;DHT22;6275;43.688;1.408;2023-11-19T04:17:23;10.30;99.90
12421;DHT22;6275;43.688;1.408;2023-11-19T04:19:50;10.20;99.90
12421;DHT22;6275;43.688;1.408;2023-11-19T04:22:17;10.20;99.90
12421;DHT22;6275;43.688;1.408;2023-11-19T04:24:45;10.10;99.90
12421;DHT22;6275;43.688;1.408;2023-11-19T04:27:13;10.00;99.90
12421;DHT22;6275;43.688;1.408;2023-11-19T04:29:40;9.90;99.90
12421;DHT22;6275;43.688;1.408;2023-11-19T04:32:11;9.80;99.90
12421;DHT22;6275;43.688;1.408;2023-11-19T04:34:37;9.80;99.90
12421;DHT22;6275;43.688;1.408;2023-11-19T04:37:04;9.80;99.90
12421;DHT22;6275;43.688;1.408;2023-11-19T04:39:34;9.90;99.90
12421;DHT22;6275;43.688;1.408;2023-11-19T04:42:01;9.90;99.90
12421;DHT22;6275;43.688;1.408;2023-11-19T04:44:29;10.00;99.90
12421;DHT22;6275;43.688;1.408;2023-11-19T04:46:56;10.10;99.90
12421;DHT22;6275;43.688;1.408;2023-11-19T04:49:24;10.20;99.90
12421;DHT22;6275;43.688;1.408;2023-11-19T04:51:54;10.30;99.90
12421;DHT22;6275;43.688;1.408;2023-11-19T04:54:21;10.30;99.90
12421;DHT22;6275;43.688;1.408;2023-11-19T04:56:48;10.40;99.90
12421;DHT22;6275;43.688;1.408;2023-11-19T04:59:15;10.50;99.90
12421;DHT22;6275;43.688;1.408;2023-11-19T05:01:46;10.50;99.90
12421;DHT22;6275;43.688;1.408;2023-11-19T05:04:14;10.50;99.90
12421;DHT22;6275;43.688;1.408;2023-11-19T05:06:42;10.60;99.90
12421;DHT22;6275;43.688;1.408;2023-11-19T05:09:09;10.60;99.90
12421;DHT22;6275;43.688;1.408;2023-11-19T05:11:36;10.60;99.90
12421;DHT22;6275;43.688;1.408;2023-11-19T05:14:17;10.60;99.90
12421;DHT22;6275;43.688;1.408;2023-11-19T05:16:45;10.50;99.90
12421;DHT22;6275;43.688;1.408;2023-11-19T05:19:12;10.50;99.90
12421;DHT22;6275;43.688;1.408;2023-11-19T05:21:42;10.60;99.90
12421;DHT22;6275;43.688;1.408;2023-11-19T05:24:09;10.40;99.90
12421;DHT22;6275;43.688;1.408;2023-11-19T05:26:36;10.20;99.90
12421;DHT22;6275;43.688;1.408;2023-11-19T05:29:03;10.10;99.90
12421;DHT22;6275;43.688;1.408;2023-11-19T05:31:31;9.90;99.90
12421;DHT22;6275;43.688;1.408;2023-11-19T05:34:02;9.80;99.90
12421;DHT22;6275;43.688;1.408;2023-11-19T05:36:30;9.80;99.90
12421;DHT22;6275;43.688;1.408;2023-11-19T05:38:57;9.70;99.90
12421;DHT22;6275;43.688;1.408;2023-11-19T05:41:23;9.70;99.90
12421;DHT22;6275;43.688;1.408;2023-11-19T05:43:50;9.70;99.90
12421;DHT22;6275;43.688;1.408;2023-11-19T05:46:18;9.60;99.90
12421;DHT22;6275;43.688;1.408;2023-11-19T05:48:47;9.60;99.90
12421;DHT22;6275;43.688;1.408;2023-11-19T05:51:14;9.60;99.90
12421;DHT22;6275;43.688;1.408;2023-11-19T05:53:42;9.50;99.90
12421;DHT22;6275;43.688;1.408;2023-11-19T05:56:09;9.50;99.90
12421;DHT22;6275;43.688;1.408;2023-11-19T05:58:37;9.50;99.90
12421;DHT22;6275;43.688;1.408;2023-11-19T06:01:06;9.50;99.90
12421;DHT22;6275;43.688;1.408;2023-11-19T06:03:35;9.50;99.90
12421;DHT22;6275;43.688;1.408;2023-11-19T06:06:03;9.50;99.90
12421;DHT22;6275;43.688;1.408;2023-11-19T06:08:32;9.50;99.90
12421;DHT22;6275;43.688;1.408;2023-11-19T06:10:59;9.60;99.90
12421;DHT22;6275;43.688;1.408;2023-11-19T06:13:28;9.60;99.90
12421;DHT22;6275;43.688;1.408;2023-11-19T06:15:57;9.60;99.90
12421;DHT22;6275;43.688;1.408;2023-11-19T06:18:24;9.60;99.90
12421;DHT22;6275;43.688;1.408;2023-11-19T06:20:52;9.60;99.90
12421;DHT22;6275;43.688;1.408;2023-11-19T06:23:19;9.70;99.90
12421;DHT22;6275;43.688;1.408;2023-11-19T06:25:46;9.70;99.90
12421;DHT22;6275;43.688;1.408;2023-11-19T06:28:13;9.70;99.90
12421;DHT22;6275;43.688;1.408;2023-11-19T06:30:40;9.80;99.90
12421;DHT22;6275;43.688;1.408;2023-11-19T06:33:08;9.80;99.90
12421;DHT22;6275;43.688;1.408;2023-11-19T06:35:35;9.80;99.90
12421;DHT22;6275;43.688;1.408;2023-11-19T06:38:05;9.90;99.90
12421;DHT22;6275;43.688;1.408;2023-11-19T06:40:35;9.90;99.90
12421;DHT22;6275;43.688;1.408;2023-11-19T06:43:02;9.90;99.90
12421;DHT22;6275;43.688;1.408;2023-11-19T06:45:31;9.90;99.90
12421;DHT22;6275;43.688;1.408;2023-11-19T06:48:01;10.00;99.90
12421;DHT22;6275;43.688;1.408;2023-11-19T06:50:30;10.00;99.90
12421;DHT22;6275;43.688;1.408;2023-11-19T06:52:57;10.00;99.90
12421;DHT22;6275;43.688;1.408;2023-11-19T06:55:24;10.00;99.90
12421;DHT22;6275;43.688;1.408;2023-11-19T06:57:51;10.00;99.90
12421;DHT22;6275;43.688;1.408;2023-11-19T07:00:18;10.00;99.90
12421;DHT22;6275;43.688;1.408;2023-11-19T07:02:45;10.00;99.90
12421;DHT22;6275;43.688;1.408;2023-11-19T07:05:12;10.00;99.90
12421;DHT22;6275;43.688;1.408;2023-11-19T07:07:40;10.00;99.90
12421;DHT22;6275;43.688;1.408;2023-11-19T07:10:07;10.00;99.90
12421;DHT22;6275;43.688;1.408;2023-11-19T07:12:36;10.00;99.90
12421;DHT22;6275;43.688;1.408;2023-11-19T07:15:03;10.00;99.90
12421;DHT22;6275;43.688;1.408;2023-11-19T07:17:31;10.00;99.90
12421;DHT22;6275;43.688;1.408;2023-11-19T07:19:58;10.00;99.90
12421;DHT22;6275;43.688;1.408;2023-11-19T07:22:26;10.00;99.90
12421;DHT22;6275;43.688;1.408;2023-11-19T07:24:56;10.10;99.90
12421;DHT22;6275;43.688;1.408;2023-11-19T07:27:23;10.10;99.90
12421;DHT22;6275;43.688;1.408;2023-11-19T07:29:51;10.10;99.90
12421;DHT22;6275;43.688;1.408;2023-11-19T07:32:18;10.10;99.90
12421;DHT22;6275;43.688;1.408;2023-11-19T07:34:46;10.10;99.90
12421;DHT22;6275;43.688;1.408;2023-11-19T07:37:13;10.10;99.90
12421;DHT22;6275;43.688;1.408;2023-11-19T07:39:39;10.10;99.90
12421;DHT22;6275;43.688;1.408;2023-11-19T07:42:08;10.20;99.90
12421;DHT22;6275;43.688;1.408;2023-11-19T07:44:36;10.20;99.90
12421;DHT22;6275;43.688;1.408;2023-11-19T07:47:03;10.30;99.90
12421;DHT22;6275;43.688;1.408;2023-11-19T07:49:31;10.30;99.90
12421;DHT22;6275;43.688;1.408;2023-11-19T07:51:58;10.30;99.90
12421;DHT22;6275;43.688;1.408;2023-11-19T07:54:25;10.40;99.90
12421;DHT22;6275;43.688;1.408;2023-11-19T07:56:52;10.40;99.90
12421;DHT22;6275;43.688;1.408;2023-11-19T07:59:19;10.50;99.90
12421;DHT22;6275;43.688;1.408;2023-11-19T08:01:46;10.50;99.90
12421;DHT22;6275;43.688;1.408;2023-11-19T08:04:13;10.50;99.90
12421;DHT22;6275;43.688;1.408;2023-11-19T08:06:40;10.60;99.90
12421;DHT22;6275;43.688;1.408;2023-11-19T08:09:07;10.60;99.90
12421;DHT22;6275;43.688;1.408;2023-11-19T08:11:41;10.60;99.90
12421;DHT22;6275;43.688;1.408;2023-11-19T08:14:08;10.70;99.90
12421;DHT22;6275;43.688;1.408;2023-11-19T08:16:35;10.70;99.90
12421;DHT22;6275;43.688;1.408;2023-11-19T08:19:04;10.70;99.90
12421;DHT22;6275;43.688;1.408;2023-11-19T08:21:31;10.80;99.90
12421;DHT22;6275;43.688;1.408;2023-11-19T08:23:58;10.80;99.90
12421;DHT22;6275;43.688;1.408;2023-11-19T08:26:25;10.90;99.90
12421;DHT22;6275;43.688;1.408;2023-11-19T08:28:52;11.00;99.90
12421;DHT22;6275;43.688;1.408;2023-11-19T08:31:19;11.00;99.90
12421;DHT22;6275;43.688;1.408;2023-11-19T08:33:46;11.10;99.90
12421;DHT22;6275;43.688;1.408;2023-11-19T08:36:17;11.10;99.90
12421;DHT22;6275;43.688;1.408;2023-11-19T08:38:44;11.20;99.90
12421;DHT22;6275;43.688;1.408;2023-11-19T08:41:11;11.20;99.90
12421;DHT22;6275;43.688;1.408;2023-11-19T08:43:38;11.20;99.90
12421;DHT22;6275;43.688;1.408;2023-11-19T08:46:10;11.30;99.90
12421;DHT22;6275;43.688;1.408;2023-11-19T08:48:38;11.30;99.90
12421;DHT22;6275;43.688;1.408;2023-11-19T08:51:05;11.40;99.90
12421;DHT22;6275;43.688;1.408;2023-11-19T08:53:32;11.40;99.90
12421;DHT22;6275;43.688;1.408;2023-11-19T08:55:59;11.40;99.90
12421;DHT22;6275;43.688;1.408;2023-11-19T08:58:27;11.50;99.90
12421;DHT22;6275;43.688;1.408;2023-11-19T09:00:54;11.50;99.90
12421;DHT22;6275;43.688;1.408;2023-11-19T09:03:20;11.60;99.90
12421;DHT22;6275;43.688;1.408;2023-11-19T09:05:48;11.60;99.90
12421;DHT22;6275;43.688;1.408;2023-11-19T09:08:15;11.60;99.90
12421;DHT22;6275;43.688;1.408;2023-11-19T09:10:42;11.60;99.90
12421;DHT22;6275;43.688;1.408;2023-11-19T09:13:09;11.60;99.90
12421;DHT22;6275;43.688;1.408;2023-11-19T09:15:36;11.50;99.90
12421;DHT22;6275;43.688;1.408;2023-11-19T09:18:02;11.60;99.90
12421;DHT22;6275;43.688;1.408;2023-11-19T09:20:31;11.60;99.90
12421;DHT22;6275;43.688;1.408;2023-11-19T09:23:05;11.60;99.90
12421;DHT22;6275;43.688;1.408;2023-11-19T09:25:32;11.50;99.90
12421;DHT22;6275;43.688;1.408;2023-11-19T09:28:02;11.20;99.90
12421;DHT22;6275;43.688;1.408;2023-11-19T09:30:30;11.10;99.90
12421;DHT22;6275;43.688;1.408;2023-11-19T09:32:57;11.00;99.90
12421;DHT22;6275;43.688;1.408;2023-11-19T09:35:24;10.90;99.90
12421;DHT22;6275;43.688;1.408;2023-11-19T09:37:51;10.90;99.90
12421;DHT22;6275;43.688;1.408;2023-11-19T09:40:18;10.80;99.90
12421;DHT22;6275;43.688;1.408;2023-11-19T09:42:45;10.70;99.90
12421;DHT22;6275;43.688;1.408;2023-11-19T09:45:17;10.50;99.90
12421;DHT22;6275;43.688;1.408;2023-11-19T09:47:46;10.40;99.90
12421;DHT22;6275;43.688;1.408;2023-11-19T09:50:18;10.30;99.90
12421;DHT22;6275;43.688;1.408;2023-11-19T09:52:46;10.30;99.90
12421;DHT22;6275;43.688;1.408;2023-11-19T09:55:14;10.20;99.90
12421;DHT22;6275;43.688;1.408;2023-11-19T09:57:41;10.20;99.90
12421;DHT22;6275;43.688;1.408;2023-11-19T10:00:11;10.20;99.90
12421;DHT22;6275;43.688;1.408;2023-11-19T10:02:40;10.10;99.90
12421;DHT22;6275;43.688;1.408;2023-11-19T10:05:09;10.10;99.90
12421;DHT22;6275;43.688;1.408;2023-11-19T10:07:37;10.20;99.90
12421;DHT22;6275;43.688;1.408;2023-11-19T10:10:04;10.20;99.90
12421;DHT22;6275;43.688;1.408;2023-11-19T10:12:31;10.20;99.90
12421;DHT22;6275;43.688;1.408;2023-11-19T10:14:59;10.10;99.90
12421;DHT22;6275;43.688;1.408;2023-11-19T10:17:32;10.10;99.90
12421;DHT22;6275;43.688;1.408;2023-11-19T10:19:59;10.10;99.90
12421;DHT22;6275;43.688;1.408;2023-11-19T10:22:27;10.20;99.90
12421;DHT22;6275;43.688;1.408;2023-11-19T10:24:54;10.20;99.90
12421;DHT22;6275;43.688;1.408;2023-11-19T10:27:24;10.30;99.90
12421;DHT22;6275;43.688;1.408;2023-11-19T10:29:52;10.40;99.90
12421;DHT22;6275;43.688;1.408;2023-11-19T10:32:19;10.40;99.90
12421;DHT22;6275;43.688;1.408;2023-11-19T10:35:07;10.40;99.90
12421;DHT22;6275;43.688;1.408;2023-11-19T10:37:34;10.50;99.90
12421;DHT22;6275;43.688;1.408;2023-11-19T10:40:04;10.50;99.90
12421;DHT22;6275;43.688;1.408;2023-11-19T10:42:32;10.50;99.90
12421;DHT22;6275;43.688;1.408;2023-11-19T10:44:59;10.60;99.90
12421;DHT22;6275;43.688;1.408;2023-11-19T10:47:26;10.70;99.90
12421;DHT22;6275;43.688;1.408;2023-11-19T10:49:56;10.80;99.90
12421;DHT22;6275;43.688;1.408;2023-11-19T10:52:23;10.90;99.90
12421;DHT22;6275;43.688;1.408;2023-11-19T10:54:51;11.00;99.90
12421;DHT22;6275;43.688;1.408;2023-11-19T10:57:20;11.10;99.90
12421;DHT22;6275;43.688;1.408;2023-11-19T10:59:49;11.20;99.90
12421;DHT22;6275;43.688;1.408;2023-11-19T11:02:22;11.30;99.90
12421;DHT22;6275;43.688;1.408;2023-11-19T11:04:51;11.50;99.90
12421;DHT22;6275;43.688;1.408;2023-11-19T11:07:21;11.50;99.90
12421;DHT22;6275;43.688;1.408;2023-11-19T11:10:02;11.60;99.90
12421;DHT22;6275;43.688;1.408;2023-11-19T11:12:36;11.60;99.90
12421;DHT22;6275;43.688;1.408;2023-11-19T11:15:05;11.70;99.90
12421;DHT22;6275;43.688;1.408;2023-11-19T11:17:33;11.90;99.90
12421;DHT22;6275;43.688;1.408;2023-11-19T11:20:01;11.90;99.90
12421;DHT22;6275;43.688;1.408;2023-11-19T11:22:40;11.90;99.90
12421;DHT22;6275;43.688;1.408;2023-11-19T11:25:28;11.90;99.90
12421;DHT22;6275;43.688;1.408;2023-11-19T11:28:32;12.00;99.90
12421;DHT22;6275;43.688;1.408;2023-11-19T11:36:44;12.40;99.90
12421;DHT22;6275;43.688;1.408;2023-11-19T11:39:14;12.50;99.90
12421;DHT22;6275;43.688;1.408;2023-11-19T11:41:42;12.60;99.90
12421;DHT22;6275;43.688;1.408;2023-11-19T11:44:09;12.60;99.90
12421;DHT22;6275;43.688;1.408;2023-11-19T11:49:05;12.70;99.90
12421;DHT22;6275;43.688;1.408;2023-11-19T11:57:09;13.00;99.90
12421;DHT22;6275;43.688;1.408;2023-11-19T12:02:08;13.00;99.90
12421;DHT22;6275;43.688;1.408;2023-11-19T12:04:36;13.00;99.90
12421;DHT22;6275;43.688;1.408;2023-11-19T12:07:10;13.10;99.90
12421;DHT22;6275;43.688;1.408;2023-11-19T12:09:42;13.10;99.90
12421;DHT22;6275;43.688;1.408;2023-11-19T12:12:26;13.20;99.90
12421;DHT22;6275;43.688;1.408;2023-11-19T12:20:04;13.20;99.90
12421;DHT22;6275;43.688;1.408;2023-11-19T12:22:39;13.10;99.90
12421;DHT22;6275;43.688;1.408;2023-11-19T12:25:07;13.10;99.90
12421;DHT22;6275;43.688;1.408;2023-11-19T12:27:36;13.00;99.90
12421;DHT22;6275;43.688;1.408;2023-11-19T12:30:04;12.80;99.90
12421;DHT22;6275;43.688;1.408;2023-11-19T12:32:41;12.90;99.90
12421;DHT22;6275;43.688;1.408;2023-11-19T12:35:09;12.70;99.90
12421;DHT22;6275;43.688;1.408;2023-11-19T12:37:43;12.80;99.90
12421;DHT22;6275;43.688;1.408;2023-11-19T12:40:13;12.80;99.90
12421;DHT22;6275;43.688;1.408;2023-11-19T12:42:40;12.80;99.90
12421;DHT22;6275;43.688;1.408;2023-11-19T12:45:08;12.70;99.90
12421;DHT22;6275;43.688;1.408;2023-11-19T12:47:38;12.70;99.90
12421;DHT22;6275;43.688;1.408;2023-11-19T12:50:05;12.70;99.90
12421;DHT22;6275;43.688;1.408;2023-11-19T12:52:33;12.70;99.90
12421;DHT22;6275;43.688;1.408;2023-11-19T12:55:01;12.70;99.90
12421;DHT22;6275;43.688;1.408;2023-11-19T12:57:40;12.70;99.90
12421;DHT22;6275;43.688;1.408;2023-11-19T13:00:18;12.80;99.90
12421;DHT22;6275;43.688;1.408;2023-11-19T13:02:53;12.90;99.90
12421;DHT22;6275;43.688;1.408;2023-11-19T13:05:33;12.90;99.90
12421;DHT22;6275;43.688;1.408;2023-11-19T13:08:00;12.90;99.90
12421;DHT22;6275;43.688;1.408;2023-11-19T13:10:28;12.90;99.90
12421;DHT22;6275;43.688;1.408;2023-11-19T13:13:08;13.00;99.90
12421;DHT22;6275;43.688;1.408;2023-11-19T13:15:35;13.00;99.90
12421;DHT22;6275;43.688;1.408;2023-11-19T13:18:02;13.10;99.90
12421;DHT22;6275;43.688;1.408;2023-11-19T13:20:30;13.10;99.90
12421;DHT22;6275;43.688;1.408;2023-11-19T13:22:58;13.20;99.90
12421;DHT22;6275;43.688;1.408;2023-11-19T13:25:26;13.20;99.90
12421;DHT22;6275;43.688;1.408;2023-11-19T13:27:55;13.30;99.90
12421;DHT22;6275;43.688;1.408;2023-11-19T13:30:23;13.30;99.90
12421;DHT22;6275;43.688;1.408;2023-11-19T13:32:53;13.40;99.90
12421;DHT22;6275;43.688;1.408;2023-11-19T13:42:46;13.60;99.90
12421;DHT22;6275;43.688;1.408;2023-11-19T13:45:14;13.70;99.90
12421;DHT22;6275;43.688;1.408;2023-11-19T13:47:45;13.70;99.90
12421;DHT22;6275;43.688;1.408;2023-11-19T13:50:14;13.80;99.90
12421;DHT22;6275;43.688;1.408;2023-11-19T13:52:43;13.70;99.90
12421;DHT22;6275;43.688;1.408;2023-11-19T13:55:12;13.60;99.90
12421;DHT22;6275;43.688;1.408;2023-11-19T13:57:40;13.60;99.90
12421;DHT22;6275;43.688;1.408;2023-11-19T14:00:09;13.50;99.90
12421;DHT22;6275;43.688;1.408;2023-11-19T14:02:46;13.50;99.90
12421;DHT22;6275;43.688;1.408;2023-11-19T14:05:16;13.50;99.90
12421;DHT22;6275;43.688;1.408;2023-11-19T14:10:49;13.60;99.90
12421;DHT22;6275;43.688;1.408;2023-11-19T14:13:16;13.60;99.90
12421;DHT22;6275;43.688;1.408;2023-11-19T14:15:44;13.60;99.90
12421;DHT22;6275;43.688;1.408;2023-11-19T14:18:14;13.60;99.90
12421;DHT22;6275;43.688;1.408;2023-11-19T14:20:40;13.60;99.90
12421;DHT22;6275;43.688;1.408;2023-11-19T14:23:07;13.50;99.90
12421;DHT22;6275;43.688;1.408;2023-11-19T14:25:36;13.50;99.90
12421;DHT22;6275;43.688;1.408;2023-11-19T14:28:03;13.50;99.90
